TSO851 UUDD-HESH
Flight info
| Callsign | TSO851 |
|---|---|
| Flight time | N/A |
| Altitude | 38000 |
| Route | SOTOG4Q SOTOG N181 LIMPI/K0906F370 N609 BERUN P29 FORMA/K0917F380 N978 TOVPU M614 ETNIL/K0919F390 M614 DIGAM M856 RAKUR/N0492F390 UM856 MUT UB545 VESAR DCT RUDER DCT VELOX/N0490F400 DCT PASOS/N0485F390 L550 DATOK DCT NOVPA NOVPA2G |
| Aircraft | B744/H-SDE3FGHIM1M2RWXY/LB1 |
Departure
| Time | 2026-05-01 14:59 |
|---|---|
| Airport | Domodedovo International Airport (UUDD) |
Arrival
| Time | N/A |
|---|---|
| Airport | Sharm El Sheikh International Airport (HESH) |
| Time | Latitude | Longitude | Altitude | Speed | Heading |
|---|---|---|---|---|---|
| 2026-05-01 14:05 | 55.41277 | 37.90365 | 601 ft | 0 kts | 5° |
| 2026-05-01 14:43 | 55.41270 | 37.90364 | 601 ft | 2 kts | 5° |
| 2026-05-01 14:44 | 55.41254 | 37.90362 | 601 ft | 2 kts | 5° |
| 2026-05-01 14:44 | 55.41222 | 37.90357 | 601 ft | 2 kts | 5° |
| 2026-05-01 14:44 | 55.41207 | 37.90356 | 601 ft | 1 kts | 6° |
| 2026-05-01 14:45 | 55.41193 | 37.90352 | 601 ft | 1 kts | 25° |
| 2026-05-01 14:45 | 55.41174 | 37.90320 | 601 ft | 2 kts | 63° |
| 2026-05-01 14:45 | 55.41167 | 37.90296 | 601 ft | 2 kts | 56° |
| 2026-05-01 14:46 | 55.41162 | 37.90283 | 601 ft | 0 kts | 56° |
| 2026-05-01 14:51 | 55.41162 | 37.90284 | 601 ft | 0 kts | 56° |
| 2026-05-01 14:51 | 55.41110 | 37.90369 | 601 ft | 8 kts | 211° |
| 2026-05-01 14:52 | 55.41039 | 37.90205 | 601 ft | 15 kts | 236° |
| 2026-05-01 14:52 | 55.40959 | 37.89995 | 601 ft | 22 kts | 236° |
| 2026-05-01 14:52 | 55.40821 | 37.89639 | 601 ft | 7 kts | 225° |
| 2026-05-01 14:53 | 55.40778 | 37.89601 | 601 ft | 7 kts | 218° |
| 2026-05-01 14:53 | 55.40749 | 37.89535 | 601 ft | 7 kts | 236° |
| 2026-05-01 14:53 | 55.40723 | 37.89467 | 601 ft | 7 kts | 236° |
| 2026-05-01 14:53 | 55.40698 | 37.89401 | 601 ft | 6 kts | 236° |
| 2026-05-01 14:54 | 55.40662 | 37.89364 | 601 ft | 6 kts | 188° |
| 2026-05-01 14:54 | 55.40621 | 37.89379 | 601 ft | 6 kts | 153° |
| 2026-05-01 14:54 | 55.40585 | 37.89424 | 601 ft | 9 kts | 144° |
| 2026-05-01 14:54 | 55.40484 | 37.89545 | 601 ft | 21 kts | 146° |
| 2026-05-01 14:55 | 55.40363 | 37.89685 | 601 ft | 20 kts | 146° |
| 2026-05-01 14:55 | 55.40249 | 37.89824 | 601 ft | 19 kts | 145° |
| 2026-05-01 14:55 | 55.40140 | 37.89955 | 601 ft | 18 kts | 146° |
| 2026-05-01 14:55 | 55.40035 | 37.90077 | 601 ft | 18 kts | 146° |
| 2026-05-01 14:56 | 55.39936 | 37.90194 | 601 ft | 17 kts | 146° |
| 2026-05-01 14:56 | 55.39843 | 37.90305 | 601 ft | 16 kts | 146° |
| 2026-05-01 14:56 | 55.39756 | 37.90410 | 601 ft | 15 kts | 146° |
| 2026-05-01 14:56 | 55.39674 | 37.90507 | 601 ft | 11 kts | 146° |
| 2026-05-01 14:57 | 55.39622 | 37.90541 | 601 ft | 8 kts | 202° |
| 2026-05-01 14:57 | 55.39552 | 37.90392 | 601 ft | 8 kts | 235° |
| 2026-05-01 14:57 | 55.39545 | 37.90311 | 601 ft | 7 kts | 301° |
| 2026-05-01 14:58 | 55.39581 | 37.90255 | 601 ft | 7 kts | 327° |
| 2026-05-01 14:58 | 55.39586 | 37.90249 | 601 ft | 0 kts | 327° |
| 2026-05-01 14:58 | 55.39596 | 37.90238 | 601 ft | 10 kts | 327° |
| 2026-05-01 14:59 | 55.39782 | 37.90020 | 601 ft | 62 kts | 324° |
| 2026-05-01 14:59 | 55.40326 | 37.89371 | 602 ft | 124 kts | 326° |
| 2026-05-01 14:59 | 55.41192 | 37.88340 | 616 ft | 174 kts | 325° |
| 2026-05-01 14:59 | 55.42200 | 37.87153 | 1272 ft | 171 kts | 326° |
| 2026-05-01 15:00 | 55.43851 | 37.84420 | 2343 ft | 165 kts | 311° |
| 2026-05-01 15:00 | 55.44580 | 37.82867 | 2758 ft | 164 kts | 310° |
| 2026-05-01 15:00 | 55.45291 | 37.81274 | 3175 ft | 167 kts | 309° |
| 2026-05-01 15:01 | 55.45998 | 37.79638 | 3607 ft | 168 kts | 307° |
| 2026-05-01 15:01 | 55.46358 | 37.77600 | 3828 ft | 189 kts | 272° |
| 2026-05-01 15:01 | 55.45843 | 37.75314 | 3941 ft | 218 kts | 237° |
| 2026-05-01 15:01 | 55.44549 | 37.73714 | 4063 ft | 242 kts | 206° |
| 2026-05-01 15:02 | 55.42842 | 37.73165 | 4212 ft | 262 kts | 187° |
| 2026-05-01 15:02 | 55.42226 | 37.73140 | 4279 ft | 268 kts | 183° |
| 2026-05-01 15:02 | 55.39024 | 37.73759 | 5081 ft | 281 kts | 183° |
| 2026-05-01 15:02 | 55.37151 | 37.72919 | 5808 ft | 285 kts | 207° |
| 2026-05-01 15:03 | 55.35518 | 37.70931 | 6337 ft | 287 kts | 226° |
| 2026-05-01 15:03 | 55.34144 | 37.68599 | 7102 ft | 285 kts | 227° |
| 2026-05-01 15:03 | 55.32667 | 37.66037 | 7687 ft | 291 kts | 229° |
| 2026-05-01 15:03 | 55.31227 | 37.63513 | 8288 ft | 296 kts | 229° |
| 2026-05-01 15:04 | 55.29754 | 37.60937 | 8852 ft | 302 kts | 228° |
| 2026-05-01 15:04 | 55.28251 | 37.58316 | 9440 ft | 306 kts | 227° |
| 2026-05-01 15:04 | 55.26742 | 37.55689 | 10057 ft | 309 kts | 227° |
| 2026-05-01 15:04 | 55.25188 | 37.52990 | 10524 ft | 321 kts | 227° |
| 2026-05-01 15:05 | 55.23558 | 37.50166 | 10770 ft | 341 kts | 227° |
| 2026-05-01 15:05 | 55.21807 | 37.47136 | 10995 ft | 364 kts | 227° |
| 2026-05-01 15:05 | 55.19949 | 37.43925 | 11218 ft | 388 kts | 226° |
| 2026-05-01 15:05 | 55.17967 | 37.40508 | 11567 ft | 407 kts | 226° |
| 2026-05-01 15:06 | 55.15928 | 37.36996 | 12308 ft | 414 kts | 226° |
| 2026-05-01 15:06 | 55.13864 | 37.33444 | 13104 ft | 420 kts | 226° |
| 2026-05-01 15:06 | 55.11766 | 37.29844 | 13946 ft | 426 kts | 226° |
| 2026-05-01 15:06 | 55.09628 | 37.26178 | 14739 ft | 434 kts | 227° |
| 2026-05-01 15:07 | 55.07448 | 37.22445 | 15469 ft | 444 kts | 227° |
| 2026-05-01 15:07 | 55.05207 | 37.18616 | 16236 ft | 453 kts | 227° |
| 2026-05-01 15:07 | 55.02969 | 37.14797 | 17003 ft | 461 kts | 227° |
| 2026-05-01 15:07 | 55.00658 | 37.10860 | 17762 ft | 469 kts | 227° |
| 2026-05-01 15:08 | 54.98303 | 37.06850 | 18601 ft | 473 kts | 226° |
| 2026-05-01 15:08 | 54.95954 | 37.02839 | 19591 ft | 473 kts | 225° |
| 2026-05-01 15:08 | 54.93625 | 36.98803 | 20597 ft | 471 kts | 224° |
| 2026-05-01 15:08 | 54.91292 | 36.94835 | 21626 ft | 468 kts | 222° |
| 2026-05-01 15:09 | 54.88963 | 36.90915 | 22650 ft | 465 kts | 221° |
| 2026-05-01 15:09 | 54.86640 | 36.87024 | 23628 ft | 462 kts | 220° |
| 2026-05-01 15:09 | 54.84327 | 36.83156 | 24516 ft | 461 kts | 220° |
| 2026-05-01 15:09 | 54.82021 | 36.79304 | 25322 ft | 461 kts | 220° |
| 2026-05-01 15:10 | 54.79706 | 36.75439 | 26032 ft | 462 kts | 221° |
| 2026-05-01 15:10 | 54.74895 | 36.68059 | 27256 ft | 463 kts | 209° |
| 2026-05-01 15:10 | 54.71947 | 36.65800 | 27766 ft | 464 kts | 197° |
| 2026-05-01 15:11 | 54.68846 | 36.64242 | 28222 ft | 468 kts | 193° |
| 2026-05-01 15:11 | 54.62384 | 36.62081 | 29058 ft | 477 kts | 188° |
| 2026-05-01 15:11 | 54.59077 | 36.61282 | 29447 ft | 481 kts | 187° |
| 2026-05-01 15:12 | 54.55740 | 36.60534 | 29853 ft | 484 kts | 187° |
| 2026-05-01 15:12 | 54.49008 | 36.58994 | 30568 ft | 491 kts | 187° |
| 2026-05-01 15:12 | 54.45617 | 36.58208 | 30902 ft | 495 kts | 187° |
| 2026-05-01 15:13 | 54.35352 | 36.55794 | 32158 ft | 496 kts | 187° |
| 2026-05-01 15:14 | 54.28528 | 36.54177 | 32987 ft | 496 kts | 187° |
| 2026-05-01 15:14 | 54.25115 | 36.53373 | 33377 ft | 496 kts | 187° |
| 2026-05-01 15:14 | 54.19399 | 36.52032 | 34016 ft | 496 kts | 187° |
| 2026-05-01 15:15 | 54.11447 | 36.50175 | 34843 ft | 496 kts | 187° |
| 2026-05-01 15:15 | 54.05738 | 36.48847 | 35413 ft | 496 kts | 187° |
| 2026-05-01 15:16 | 53.98911 | 36.47263 | 36060 ft | 496 kts | 187° |
| 2026-05-01 15:16 | 53.92010 | 36.45668 | 36676 ft | 496 kts | 187° |
| 2026-05-01 15:17 | 53.85207 | 36.44101 | 37255 ft | 496 kts | 187° |
| 2026-05-01 15:18 | 53.74957 | 36.41749 | 38066 ft | 496 kts | 187° |
| 2026-05-01 15:18 | 53.71550 | 36.40970 | 38187 ft | 496 kts | 187° |
| 2026-05-01 15:19 | 53.61316 | 36.38637 | 38230 ft | 494 kts | 187° |
| 2026-05-01 15:19 | 53.51085 | 36.36317 | 38233 ft | 494 kts | 187° |
| 2026-05-01 15:20 | 53.40873 | 36.34012 | 38236 ft | 494 kts | 187° |
| 2026-05-01 15:21 | 53.34046 | 36.32477 | 38239 ft | 494 kts | 187° |
| 2026-05-01 15:21 | 53.27285 | 36.30962 | 38240 ft | 493 kts | 187° |
| 2026-05-01 15:22 | 53.17082 | 36.28685 | 38241 ft | 494 kts | 187° |
| 2026-05-01 15:22 | 53.10255 | 36.27167 | 38242 ft | 494 kts | 187° |
| 2026-05-01 15:23 | 53.03442 | 36.25658 | 38242 ft | 494 kts | 187° |
| 2026-05-01 15:23 | 52.96624 | 36.24151 | 38244 ft | 498 kts | 187° |
| 2026-05-01 15:24 | 52.89758 | 36.22640 | 38236 ft | 499 kts | 187° |
| 2026-05-01 15:24 | 52.82930 | 36.21143 | 38249 ft | 492 kts | 187° |
| 2026-05-01 15:25 | 52.76157 | 36.19661 | 38251 ft | 489 kts | 188° |
| 2026-05-01 15:25 | 52.69400 | 36.18187 | 38253 ft | 492 kts | 188° |
| 2026-05-01 15:26 | 52.62604 | 36.16709 | 38253 ft | 494 kts | 188° |
| 2026-05-01 15:26 | 52.55778 | 36.15229 | 38256 ft | 495 kts | 188° |
| 2026-05-01 15:27 | 52.48997 | 36.13764 | 38258 ft | 492 kts | 188° |
| 2026-05-01 15:28 | 52.38766 | 36.11562 | 38260 ft | 497 kts | 188° |
| 2026-05-01 15:28 | 52.31853 | 36.10080 | 38260 ft | 497 kts | 188° |
| 2026-05-01 15:29 | 52.21625 | 36.07896 | 38260 ft | 496 kts | 188° |
| 2026-05-01 15:30 | 52.07925 | 36.04986 | 38260 ft | 497 kts | 188° |
| 2026-05-01 15:31 | 51.87346 | 36.00649 | 38259 ft | 497 kts | 188° |
| 2026-05-01 15:32 | 51.73606 | 35.97775 | 38260 ft | 497 kts | 188° |
| 2026-05-01 15:34 | 51.53022 | 35.93503 | 38260 ft | 498 kts | 188° |